createdAt,value
2023-03-17T00:01:57.118Z,16.20
2023-03-17T00:04:26.718Z,16.20
2023-03-17T00:06:55.792Z,16.20
2023-03-17T00:09:24.171Z,16.10
2023-03-17T00:11:52.546Z,16.10
2023-03-17T00:14:22.995Z,16.00
2023-03-17T00:16:52.826Z,16.00
2023-03-17T00:19:29.927Z,16.00
2023-03-17T00:21:59.304Z,15.90
2023-03-17T00:24:27.726Z,15.90
2023-03-17T00:26:56.343Z,15.90
2023-03-17T00:29:27.042Z,15.90
2023-03-17T00:31:59.063Z,15.90
2023-03-17T00:34:28.403Z,15.80
2023-03-17T00:36:57.158Z,15.80
2023-03-17T00:39:25.582Z,15.80
2023-03-17T00:41:54.228Z,15.80
2023-03-17T00:44:22.600Z,15.80
2023-03-17T00:46:52.700Z,15.70
2023-03-17T00:49:24.108Z,15.70
2023-03-17T00:51:53.183Z,15.70
2023-03-17T00:54:22.191Z,15.70
2023-03-17T00:56:52.411Z,15.60
2023-03-17T00:59:26.192Z,15.60
2023-03-17T01:01:56.611Z,15.60
2023-03-17T01:04:25.695Z,15.50
2023-03-17T01:06:54.555Z,15.50
2023-03-17T01:09:27.006Z,15.50
2023-03-17T01:11:56.237Z,15.50
2023-03-17T01:14:24.915Z,15.40
2023-03-17T01:16:55.493Z,15.40
2023-03-17T01:19:23.984Z,15.40
2023-03-17T01:21:52.550Z,15.40
2023-03-17T01:24:21.134Z,15.30
2023-03-17T01:26:49.621Z,15.30
2023-03-17T01:29:18.536Z,15.30
2023-03-17T01:31:47.982Z,15.30
2023-03-17T01:34:17.958Z,15.30
2023-03-17T01:36:46.895Z,15.20
2023-03-17T01:39:15.445Z,15.20
2023-03-17T01:41:45.821Z,15.20
2023-03-17T01:44:17.483Z,15.20
2023-03-17T01:46:47.705Z,15.20
2023-03-17T01:49:23.949Z,15.10
2023-03-17T01:52:03.025Z,15.10
2023-03-17T01:54:36.942Z,15.10
2023-03-17T01:57:11.750Z,15.10
2023-03-17T01:59:45.571Z,15.10
2023-03-17T02:02:19.813Z,15.10
2023-03-17T02:04:50.513Z,15.10
2023-03-17T02:07:20.532Z,15.10
2023-03-17T02:09:49.218Z,15.10
2023-03-17T02:12:17.551Z,15.10
2023-03-17T02:14:46.872Z,15.10
2023-03-17T02:17:15.242Z,15.00
2023-03-17T02:19:43.540Z,15.00
2023-03-17T02:22:13.575Z,15.00
2023-03-17T02:24:46.106Z,14.90
2023-03-17T02:27:17.675Z,14.90
2023-03-17T02:29:47.073Z,14.90
2023-03-17T02:32:17.768Z,14.90
2023-03-17T02:34:46.488Z,14.90
2023-03-17T02:37:16.596Z,14.90
2023-03-17T02:39:45.055Z,14.80
2023-03-17T02:42:14.064Z,14.80
2023-03-17T02:44:42.404Z,14.80
2023-03-17T02:47:10.914Z,14.80
2023-03-17T02:49:41.348Z,14.80
2023-03-17T02:52:10.030Z,14.80
2023-03-17T02:54:40.409Z,14.70
2023-03-17T02:57:08.890Z,14.70
2023-03-17T02:59:37.566Z,14.70
2023-03-17T03:02:06.054Z,14.70
2023-03-17T03:04:34.928Z,14.70
2023-03-17T03:07:04.124Z,14.60
2023-03-17T03:09:32.547Z,14.60
2023-03-17T03:12:02.314Z,14.60
2023-03-17T03:14:30.749Z,14.50
2023-03-17T03:16:59.664Z,14.50
2023-03-17T03:19:28.404Z,14.40
2023-03-17T03:21:56.900Z,14.40
2023-03-17T03:24:26.165Z,14.40
2023-03-17T03:26:54.668Z,14.30
2023-03-17T03:29:24.518Z,14.30
2023-03-17T03:31:52.882Z,14.30
2023-03-17T03:34:21.322Z,14.30
2023-03-17T03:36:49.813Z,14.20
2023-03-17T03:39:18.228Z,14.20
2023-03-17T03:41:46.615Z,14.20
2023-03-17T03:44:15.060Z,14.10
2023-03-17T03:46:44.860Z,14.10
2023-03-17T03:49:13.287Z,14.00
2023-03-17T03:51:41.729Z,14.10
2023-03-17T03:54:10.088Z,14.00
2023-03-17T03:56:38.599Z,14.00
2023-03-17T03:59:07.362Z,14.00
2023-03-17T04:01:35.683Z,14.00
2023-03-17T04:04:05.843Z,13.90
2023-03-17T04:06:34.198Z,13.90
2023-03-17T04:09:02.564Z,13.90
2023-03-17T04:11:31.154Z,13.90
2023-03-17T04:13:59.501Z,13.90
2023-03-17T04:16:28.346Z,13.90
2023-03-17T04:18:56.768Z,13.90
2023-03-17T04:21:26.794Z,13.90
2023-03-17T04:23:55.062Z,13.90
2023-03-17T04:26:24.440Z,13.90
2023-03-17T04:28:52.733Z,13.80
2023-03-17T04:31:21.189Z,13.80
2023-03-17T04:33:49.561Z,13.80
2023-03-17T04:36:20.604Z,13.80
2023-03-17T04:38:50.835Z,13.70
2023-03-17T04:41:19.345Z,13.70
2023-03-17T04:43:47.822Z,13.70
2023-03-17T04:46:16.442Z,13.70
2023-03-17T04:48:44.863Z,13.70
2023-03-17T04:51:13.295Z,13.60
2023-03-17T04:53:41.753Z,13.60
2023-03-17T04:56:11.770Z,13.50
2023-03-17T04:58:40.994Z,13.50
2023-03-17T05:01:09.409Z,13.50
2023-03-17T05:03:37.986Z,13.50
2023-03-17T05:06:07.328Z,13.50
2023-03-17T05:08:35.989Z,13.50
2023-03-17T05:11:04.354Z,13.50
2023-03-17T05:13:34.261Z,13.50
2023-03-17T05:16:02.565Z,13.40
2023-03-17T05:18:31.112Z,13.40
2023-03-17T05:20:59.563Z,13.40
2023-03-17T05:23:28.231Z,13.40
2023-03-17T05:25:56.972Z,13.30
2023-03-17T05:28:25.368Z,13.30
2023-03-17T05:30:55.590Z,13.30
2023-03-17T05:33:24.372Z,13.30
2023-03-17T05:35:53.788Z,13.30
2023-03-17T05:38:22.301Z,13.30
2023-03-17T05:40:52.702Z,13.30
2023-03-17T05:43:21.112Z,13.20
2023-03-17T05:45:50.777Z,13.30
2023-03-17T05:48:21.213Z,13.20
2023-03-17T05:50:49.680Z,13.20
2023-03-17T05:53:18.790Z,13.20
2023-03-17T05:55:47.142Z,13.20
2023-03-17T05:58:17.160Z,13.20
2023-03-17T06:00:46.368Z,13.20
2023-03-17T06:03:14.932Z,13.20
2023-03-17T06:05:44.946Z,13.20
2023-03-17T06:08:14.014Z,13.20
2023-03-17T06:10:44.486Z,13.20
2023-03-17T06:13:13.040Z,13.30
2023-03-17T06:15:42.399Z,13.20
2023-03-17T06:18:10.932Z,13.30
2023-03-17T06:20:39.308Z,13.30
2023-03-17T06:23:09.113Z,13.30
2023-03-17T06:25:37.710Z,13.30
2023-03-17T06:28:06.950Z,13.30
2023-03-17T06:30:38.748Z,13.30
2023-03-17T06:33:08.616Z,13.30
2023-03-17T06:35:37.308Z,13.30
2023-03-17T06:38:05.901Z,13.40
2023-03-17T06:40:35.634Z,13.30
2023-03-17T06:43:04.397Z,13.30
2023-03-17T06:45:33.988Z,13.30
2023-03-17T06:48:05.315Z,13.40
2023-03-17T06:50:33.919Z,13.40
2023-03-17T06:53:03.071Z,13.40
2023-03-17T06:55:32.145Z,13.40
2023-03-17T06:58:03.142Z,13.40
2023-03-17T07:00:33.118Z,13.40
2023-03-17T07:03:01.499Z,13.40
2023-03-17T07:05:30.225Z,13.40
2023-03-17T07:07:58.896Z,13.40
2023-03-17T07:10:27.305Z,13.40
2023-03-17T07:12:55.960Z,13.40
2023-03-17T07:15:25.905Z,13.40
2023-03-17T07:17:54.438Z,13.50
2023-03-17T07:20:23.002Z,13.50
2023-03-17T07:22:51.630Z,13.60
2023-03-17T07:25:20.491Z,13.60
2023-03-17T07:27:48.986Z,13.70
2023-03-17T07:30:19.368Z,13.70
2023-03-17T07:32:50.345Z,13.80
2023-03-17T07:35:19.708Z,13.80
2023-03-17T07:37:48.911Z,13.90
2023-03-17T07:40:18.588Z,13.90
2023-03-17T07:42:46.970Z,13.90
2023-03-17T07:45:15.569Z,14.00
2023-03-17T07:47:43.921Z,14.00
2023-03-17T07:50:14.195Z,14.00
2023-03-17T07:52:42.574Z,14.00
2023-03-17T07:55:12.732Z,14.00
2023-03-17T07:57:41.506Z,14.00
2023-03-17T08:00:13.873Z,14.10
2023-03-17T08:02:42.345Z,14.10
2023-03-17T08:05:11.579Z,14.20
2023-03-17T08:07:41.716Z,14.20
2023-03-17T08:10:11.760Z,14.20
2023-03-17T08:12:40.332Z,14.20
2023-03-17T08:15:09.506Z,14.30
2023-03-17T08:17:38.043Z,14.30
2023-03-17T08:20:07.508Z,14.30
2023-03-17T08:22:35.878Z,14.40
2023-03-17T08:25:06.177Z,14.40
2023-03-17T08:27:34.539Z,14.50
2023-03-17T08:30:03.238Z,14.60
2023-03-17T08:32:31.812Z,14.60
2023-03-17T08:35:00.537Z,14.60
2023-03-17T08:37:29.013Z,14.70
2023-03-17T08:39:57.908Z,14.70
2023-03-17T08:42:27.709Z,14.70
2023-03-17T08:44:56.131Z,14.80
2023-03-17T08:47:24.970Z,14.80
2023-03-17T08:49:53.436Z,14.80
2023-03-17T08:52:21.825Z,14.90
2023-03-17T08:54:50.392Z,14.90
2023-03-17T08:57:19.715Z,15.00
2023-03-17T08:59:49.886Z,15.10
2023-03-17T09:02:18.452Z,15.00
2023-03-17T09:04:47.161Z,15.10
2023-03-17T09:07:15.614Z,15.20
2023-03-17T09:09:44.081Z,15.20
2023-03-17T09:12:12.573Z,15.20
2023-03-17T09:14:44.299Z,15.30
2023-03-17T09:17:15.519Z,15.30
2023-03-17T09:19:44.791Z,15.40
2023-03-17T09:22:14.731Z,15.50
2023-03-17T09:24:43.270Z,15.50
2023-03-17T09:27:12.022Z,15.40
2023-03-17T09:29:40.488Z,15.50
2023-03-17T09:32:09.581Z,15.50
2023-03-17T09:34:39.325Z,15.60
2023-03-17T09:37:09.911Z,15.70
2023-03-17T09:39:38.458Z,15.70
2023-03-17T09:42:38.731Z,15.70
2023-03-17T09:45:21.181Z,15.70
2023-03-17T09:48:31.454Z,15.80
2023-03-17T09:51:05.714Z,15.90
2023-03-17T09:53:37.758Z,15.90
2023-03-17T09:56:12.408Z,16.00
2023-03-17T09:58:43.767Z,16.00
2023-03-17T10:01:12.915Z,16.10
2023-03-17T10:03:41.548Z,16.20
2023-03-17T10:06:34.879Z,16.20
2023-03-17T10:09:11.657Z,16.30
2023-03-17T10:11:43.499Z,16.40
2023-03-17T10:14:37.842Z,16.50
2023-03-17T10:17:16.695Z,16.50
2023-03-17T10:19:51.635Z,16.60
2023-03-17T10:22:26.186Z,16.70
2023-03-17T10:25:02.409Z,16.80
2023-03-17T10:27:36.406Z,16.80
2023-03-17T10:30:05.748Z,16.90
2023-03-17T10:32:38.388Z,17.00
2023-03-17T10:35:10.844Z,17.10
2023-03-17T10:37:43.894Z,17.10
2023-03-17T10:40:22.946Z,17.20
2023-03-17T10:42:55.052Z,17.30
2023-03-17T10:45:28.772Z,17.30
2023-03-17T10:47:58.779Z,17.30
2023-03-17T10:50:31.545Z,17.40
2023-03-17T10:53:10.927Z,17.50
2023-03-17T10:55:44.821Z,17.50
2023-03-17T10:58:17.094Z,17.60
2023-03-17T11:00:57.386Z,17.70
2023-03-17T11:03:29.447Z,17.80
2023-03-17T11:05:59.194Z,17.90
2023-03-17T11:08:32.879Z,18.00
2023-03-17T11:11:05.017Z,18.10
2023-03-17T11:13:33.294Z,18.20
2023-03-17T11:16:10.718Z,18.30
2023-03-17T11:18:40.921Z,18.40
2023-03-17T11:21:12.201Z,18.50
2023-03-17T11:23:51.166Z,18.60
2023-03-17T11:26:41.756Z,18.60
2023-03-17T11:29:25.924Z,18.70
2023-03-17T11:32:02.118Z,18.90
2023-03-17T11:34:45.003Z,19.00
2023-03-17T11:37:25.117Z,19.10
2023-03-17T11:40:04.135Z,19.30
2023-03-17T11:42:41.841Z,19.40
2023-03-17T11:45:22.544Z,19.50
2023-03-17T11:48:09.901Z,19.70
2023-03-17T11:50:46.938Z,19.80
2023-03-17T11:53:38.260Z,19.90
2023-03-17T11:56:15.328Z,20.10
2023-03-17T11:58:46.158Z,20.30
2023-03-17T12:01:17.116Z,20.40
2023-03-17T12:03:51.089Z,20.70
2023-03-17T12:06:27.145Z,21.00
2023-03-17T12:08:59.849Z,21.30
2023-03-17T12:11:33.230Z,21.70
2023-03-17T12:14:05.975Z,22.00
2023-03-17T12:16:39.917Z,22.30
2023-03-17T12:19:14.770Z,22.60
2023-03-17T12:21:50.413Z,22.90
2023-03-17T12:24:22.720Z,23.20
2023-03-17T12:26:59.005Z,23.60
2023-03-17T12:29:43.194Z,23.90
2023-03-17T12:32:19.856Z,24.20
2023-03-17T12:34:53.324Z,24.50
2023-03-17T12:37:22.941Z,24.90
2023-03-17T12:39:58.794Z,25.10
2023-03-17T12:42:38.948Z,25.50
2023-03-17T12:45:28.902Z,25.70
2023-03-17T12:48:16.752Z,26.00
2023-03-17T12:51:06.849Z,26.30
2023-03-17T12:53:38.067Z,26.60
2023-03-17T12:56:13.876Z,27.00
2023-03-17T12:58:46.639Z,27.30
2023-03-17T13:01:26.555Z,27.60
2023-03-17T13:04:05.069Z,27.70
2023-03-17T13:06:40.606Z,27.80
2023-03-17T13:09:31.595Z,28.00
2023-03-17T13:12:01.252Z,28.20
2023-03-17T13:14:43.115Z,28.40
2023-03-17T13:17:35.088Z,28.70
2023-03-17T13:20:16.339Z,28.90
2023-03-17T13:23:13.261Z,29.00
2023-03-17T13:25:53.629Z,29.30
2023-03-17T13:28:30.794Z,29.50
2023-03-17T13:31:11.540Z,29.70
2023-03-17T13:33:46.690Z,29.90
2023-03-17T13:36:33.624Z,29.90
2023-03-17T13:39:27.707Z,29.80
2023-03-17T13:42:32.295Z,29.90
2023-03-17T13:45:22.762Z,30.00
2023-03-17T13:47:53.652Z,30.10
2023-03-17T13:50:25.599Z,30.10
2023-03-17T13:52:57.977Z,30.20
2023-03-17T13:55:41.307Z,30.30
2023-03-17T13:58:33.252Z,30.40
2023-03-17T14:01:07.390Z,30.50
2023-03-17T14:03:42.049Z,30.50
2023-03-17T14:06:13.553Z,30.60
2023-03-17T14:08:47.210Z,30.60
2023-03-17T14:11:24.289Z,30.80
2023-03-17T14:14:08.755Z,31.00
2023-03-17T14:16:44.643Z,31.30
2023-03-17T14:19:22.091Z,31.40
2023-03-17T14:21:50.697Z,31.60
2023-03-17T14:24:25.204Z,31.70
2023-03-17T14:26:54.339Z,31.80
2023-03-17T14:29:28.072Z,32.00
2023-03-17T14:32:05.288Z,32.10
2023-03-17T14:34:35.676Z,32.20
2023-03-17T14:37:05.761Z,32.20
2023-03-17T14:39:34.068Z,32.40
2023-03-17T14:42:04.471Z,32.50
2023-03-17T14:44:40.506Z,32.50
2023-03-17T14:47:17.532Z,32.60
2023-03-17T14:49:47.866Z,32.60
2023-03-17T14:52:21.394Z,32.60
2023-03-17T14:54:53.861Z,32.60
2023-03-17T14:57:24.739Z,32.60
2023-03-17T15:00:00.891Z,32.40
2023-03-17T15:02:34.639Z,32.40
2023-03-17T15:05:12.715Z,32.30
2023-03-17T15:07:43.336Z,32.20
2023-03-17T15:10:17.642Z,32.10
2023-03-17T15:12:47.487Z,32.20
2023-03-17T15:15:23.951Z,32.20
2023-03-17T15:17:53.492Z,32.20
2023-03-17T15:20:23.950Z,32.00
2023-03-17T15:22:59.314Z,31.80
2023-03-17T15:25:35.166Z,31.60
2023-03-17T15:28:03.566Z,31.50
2023-03-17T15:30:45.941Z,31.20
2023-03-17T15:33:22.332Z,31.00
2023-03-17T15:35:52.559Z,30.90
2023-03-17T15:38:21.636Z,30.70
2023-03-17T15:40:50.646Z,30.60
2023-03-17T15:43:21.658Z,30.40
2023-03-17T15:45:55.508Z,30.20
2023-03-17T15:48:25.411Z,30.00
2023-03-17T15:50:56.775Z,29.80
2023-03-17T15:53:28.174Z,29.60
2023-03-17T15:55:56.487Z,29.40
2023-03-17T15:58:24.825Z,29.20
2023-03-17T16:00:57.367Z,29.00
2023-03-17T16:03:30.256Z,28.80
2023-03-17T16:06:00.552Z,28.50
2023-03-17T16:08:28.958Z,28.40
2023-03-17T16:10:57.334Z,28.20
2023-03-17T16:13:25.830Z,28.10
2023-03-17T16:15:57.329Z,28.00
2023-03-17T16:18:32.795Z,27.90
2023-03-17T16:21:04.071Z,27.70
2023-03-17T16:23:37.005Z,27.50
2023-03-17T16:26:14.938Z,27.30
2023-03-17T16:28:45.968Z,27.10
2023-03-17T16:31:20.797Z,26.90
2023-03-17T16:33:50.286Z,26.70
2023-03-17T16:36:21.543Z,26.60
2023-03-17T16:38:51.006Z,26.40
2023-03-17T16:41:22.208Z,26.30
2023-03-17T16:43:53.670Z,26.20
2023-03-17T16:46:22.925Z,26.10
2023-03-17T16:48:51.705Z,25.90
2023-03-17T16:51:21.511Z,25.80
2023-03-17T16:53:49.915Z,25.60
2023-03-17T16:56:20.666Z,25.50
2023-03-17T16:58:49.565Z,25.40
2023-03-17T17:01:21.810Z,25.30
2023-03-17T17:03:50.699Z,25.20
2023-03-17T17:06:22.664Z,25.00
2023-03-17T17:08:52.206Z,24.90
2023-03-17T17:11:21.358Z,24.80
2023-03-17T17:13:51.891Z,24.60
2023-03-17T17:16:24.519Z,24.50
2023-03-17T17:18:52.978Z,24.40
2023-03-17T17:21:22.958Z,24.20
2023-03-17T17:23:53.020Z,24.10
2023-03-17T17:26:22.145Z,24.00
2023-03-17T17:28:50.795Z,23.90
2023-03-17T17:31:19.387Z,23.70
2023-03-17T17:33:47.753Z,23.60
2023-03-17T17:36:18.044Z,23.50
2023-03-17T17:38:47.774Z,23.40
2023-03-17T17:41:17.138Z,23.30
2023-03-17T17:43:46.341Z,23.20
2023-03-17T17:46:18.265Z,23.10
2023-03-17T17:48:47.156Z,23.00
2023-03-17T17:51:16.008Z,22.90
2023-03-17T17:53:44.672Z,22.80
2023-03-17T17:56:16.878Z,22.60
2023-03-17T17:58:45.593Z,22.50
2023-03-17T18:01:17.043Z,22.50
2023-03-17T18:03:45.411Z,22.40
2023-03-17T18:06:14.198Z,22.20
2023-03-17T18:08:43.594Z,22.10
2023-03-17T18:11:12.308Z,22.10
2023-03-17T18:13:42.231Z,22.00
2023-03-17T18:16:12.475Z,21.90
2023-03-17T18:18:42.446Z,21.80
2023-03-17T18:21:10.978Z,21.80
2023-03-17T18:23:39.304Z,21.70
2023-03-17T18:26:07.705Z,21.60
2023-03-17T18:28:36.095Z,21.60
2023-03-17T18:31:10.677Z,21.50
2023-03-17T18:33:40.147Z,21.50
2023-03-17T18:36:09.879Z,21.40
2023-03-17T18:38:38.680Z,21.30
2023-03-17T18:41:11.135Z,21.30
2023-03-17T18:43:41.086Z,21.20
2023-03-17T18:46:10.959Z,21.10
2023-03-17T18:48:39.561Z,21.10
2023-03-17T18:51:08.142Z,21.00
2023-03-17T18:53:38.264Z,21.00
2023-03-17T18:56:07.520Z,21.00
2023-03-17T18:58:36.349Z,20.90
2023-03-17T19:01:05.723Z,20.80
2023-03-17T19:03:36.264Z,20.80
2023-03-17T19:06:13.470Z,20.70
2023-03-17T19:08:42.226Z,20.70
2023-03-17T19:11:12.253Z,20.60
2023-03-17T19:13:40.582Z,20.60
2023-03-17T19:16:10.625Z,20.50
2023-03-17T19:18:42.236Z,20.50
2023-03-17T19:21:11.707Z,20.50
2023-03-17T19:23:41.706Z,20.40
2023-03-17T19:26:10.656Z,20.40
2023-03-17T19:28:39.027Z,20.40
2023-03-17T19:31:07.851Z,20.30
2023-03-17T19:33:36.616Z,20.30
2023-03-17T19:36:11.063Z,20.20
2023-03-17T19:38:39.534Z,20.10
2023-03-17T19:41:08.217Z,20.10
2023-03-17T19:43:41.159Z,20.00
2023-03-17T19:46:11.161Z,20.00
2023-03-17T19:48:40.025Z,19.90
2023-03-17T19:51:09.733Z,19.90
2023-03-17T19:53:38.562Z,19.90
2023-03-17T19:56:07.648Z,19.90
2023-03-17T19:58:36.054Z,19.80
2023-03-17T20:01:05.119Z,19.80
2023-03-17T20:03:33.851Z,19.80
2023-03-17T20:06:06.187Z,19.70
2023-03-17T20:08:36.342Z,19.70
2023-03-17T20:11:06.078Z,19.60
2023-03-17T20:13:35.536Z,19.60
2023-03-17T20:16:04.797Z,19.60
2023-03-17T20:18:33.321Z,19.60
2023-03-17T20:21:05.585Z,19.50
2023-03-17T20:23:36.724Z,19.50
2023-03-17T20:26:05.365Z,19.40
2023-03-17T20:28:33.726Z,19.40
2023-03-17T20:31:03.093Z,19.40
2023-03-17T20:33:31.870Z,19.40
2023-03-17T20:36:00.457Z,19.30
2023-03-17T20:38:29.207Z,19.30
2023-03-17T20:41:09.000Z,19.30
2023-03-17T20:43:38.425Z,19.20
2023-03-17T20:46:08.810Z,19.20
2023-03-17T20:48:37.799Z,19.10
2023-03-17T20:51:06.756Z,19.10
2023-03-17T20:53:37.746Z,19.10
2023-03-17T20:56:08.627Z,19.00
2023-03-17T20:58:37.100Z,19.00
2023-03-17T21:01:05.711Z,19.00
2023-03-17T21:03:34.042Z,19.00
2023-03-17T21:06:02.388Z,18.90
2023-03-17T21:08:30.708Z,18.90
2023-03-17T21:10:59.015Z,18.90
2023-03-17T21:13:28.829Z,18.80
2023-03-17T21:15:57.410Z,18.80
2023-03-17T21:18:26.019Z,18.80
2023-03-17T21:20:54.639Z,18.70
2023-03-17T21:23:23.410Z,18.70
2023-03-17T21:25:56.770Z,18.70
2023-03-17T21:28:25.506Z,18.60
2023-03-17T21:30:55.275Z,18.60
2023-03-17T21:33:23.676Z,18.50
2023-03-17T21:35:52.261Z,18.50
2023-03-17T21:38:20.590Z,18.50
2023-03-17T21:40:48.897Z,18.50
2023-03-17T21:43:17.383Z,18.50
2023-03-17T21:45:46.093Z,18.40
2023-03-17T21:48:16.059Z,18.40
2023-03-17T21:50:44.604Z,18.40
2023-03-17T21:53:15.946Z,18.40
2023-03-17T21:55:44.323Z,18.30
2023-03-17T21:58:12.636Z,18.30
2023-03-17T22:00:45.560Z,18.30
2023-03-17T22:03:15.782Z,18.30
2023-03-17T22:05:44.111Z,18.20
2023-03-17T22:08:12.425Z,18.20
2023-03-17T22:10:41.350Z,18.20
2023-03-17T22:13:09.727Z,18.20
2023-03-17T22:15:38.858Z,18.10
2023-03-17T22:18:07.439Z,18.10
2023-03-17T22:20:37.739Z,18.00
2023-03-17T22:23:06.296Z,18.00
2023-03-17T22:25:34.719Z,17.90
2023-03-17T22:28:03.254Z,17.90
2023-03-17T22:30:31.976Z,17.90
2023-03-17T22:33:01.181Z,17.90
2023-03-17T22:35:29.652Z,17.90
2023-03-17T22:37:59.526Z,17.80
2023-03-17T22:40:28.211Z,17.80
2023-03-17T22:42:57.614Z,17.80
2023-03-17T22:45:26.838Z,17.80
2023-03-17T22:47:56.160Z,17.70
2023-03-17T22:50:26.336Z,17.70
2023-03-17T22:52:54.689Z,17.70
2023-03-17T22:55:24.530Z,17.70
2023-03-17T22:57:53.056Z,17.60
2023-03-17T23:00:23.021Z,17.60
2023-03-17T23:02:51.706Z,17.60
2023-03-17T23:05:20.506Z,17.60
2023-03-17T23:07:50.936Z,17.50
2023-03-17T23:10:23.182Z,17.50
2023-03-17T23:12:54.600Z,17.50
2023-03-17T23:15:23.229Z,17.40
2023-03-17T23:17:52.110Z,17.40
2023-03-17T23:20:20.635Z,17.40
2023-03-17T23:22:49.114Z,17.40
2023-03-17T23:25:17.974Z,17.30
2023-03-17T23:27:46.940Z,17.30
2023-03-17T23:30:18.014Z,17.30
2023-03-17T23:32:46.895Z,17.30
2023-03-17T23:35:15.639Z,17.30
2023-03-17T23:37:44.050Z,17.30
2023-03-17T23:40:15.751Z,17.20
2023-03-17T23:42:44.751Z,17.10
2023-03-17T23:45:15.454Z,17.10
2023-03-17T23:47:46.039Z,17.10
2023-03-17T23:50:16.373Z,17.10
2023-03-17T23:52:45.112Z,17.00
2023-03-17T23:55:14.053Z,17.00
2023-03-17T23:57:44.254Z,17.00
